Ana Sayfa
METAR-TAF:

METAR-TAF

Havaalanları :

Saint-Pierre, Réunion

Enlem: 21-20S, Boylam: 055-29E, yükseklik: 52 m

Güncel hava durumu gözlemi

Rapor saat 19:30 UTC de 32 dakika önce yapıldı.
Rüzgar doğudan 4 kt, kuzeydoğu ve güneydoğu arasında değişken
Sıcaklık 24°C
Nem 74%
Basınç 1017 hPa
Görüş mesafesi 10 km veya daha fazla

METAR: FMEP 211930Z AUTO 10004KT 050V130 9999 ///TCU 24/19 Q1017

Saat: 00:02 (20:02 UTC)

Tahmin

Rapor saat 11:00 UTC de 9 saat ve 2 dakika önce yapıldı.
Ayın 21'si saat 12 UTC'den ayın 21'si saat 21 UTC'ye kadar geçerli Tahmin
Rüzgar doğu/güneydoğudan 22 kt ve 32 kt'a kadar ani rüzgarlar
Görüş mesafesi 10 km veya daha fazla
3000 ft yükseklikte parçalı bulutlu
Dönüşüyor
ayın 21'si saat 18 UTC'den ayın 21'si saat 20 UTC'ye kadar
Rüzgar kuzeydoğudan 8 kt

TAF: FMEP 211100Z 2112/2121 12022G32KT 9999 SCT030 BECMG 2118/2120 04008KT

4.000'den fazla havaalanı için hava durumu gözlemleri ve tahminleri (METAR ve TAF raporları).

Kullanılabilir istasyonlar harita üzerinde sarı ve kırmızı noktalarla gösterilir.

İstasyonun adını görmek için fareyi noktanın üzerinde gezdirin.

Sonrasında hava gözlem ve tahminlerini görmek için tıklayın.

Haritayı değiştirmek için: yaklaştırmak için siyah artı işaretli yeşil düğmeye ve uzaklaştırmak için de eksi işaretli düğmeye hızla tıklayın; bitişik haritalar için yeşil okları kullanın.


METAR-TAF: